createdAt,value
2018-11-10T00:01:41.360Z,11.70
2018-11-10T00:05:08.112Z,11.80
2018-11-10T00:08:33.603Z,11.80
2018-11-10T00:12:00.103Z,11.70
2018-11-10T00:15:25.771Z,11.60
2018-11-10T00:18:50.673Z,11.50
2018-11-10T00:22:15.388Z,11.50
2018-11-10T00:25:40.059Z,11.40
2018-11-10T00:29:04.862Z,11.50
2018-11-10T00:32:29.533Z,11.60
2018-11-10T00:35:54.705Z,11.60
2018-11-10T00:39:19.438Z,11.60
2018-11-10T00:42:44.658Z,11.80
2018-11-10T00:46:09.411Z,11.90
2018-11-10T00:49:34.345Z,11.90
2018-11-10T00:52:59.127Z,12.00
2018-11-10T00:56:23.895Z,12.00
2018-11-10T00:59:48.580Z,12.10
2018-11-10T01:03:13.322Z,12.20
2018-11-10T01:06:38.025Z,12.20
2018-11-10T01:10:02.672Z,12.30
2018-11-10T01:13:27.317Z,12.30
2018-11-10T01:16:52.032Z,12.30
2018-11-10T01:20:16.727Z,12.30
2018-11-10T01:23:41.461Z,12.20
2018-11-10T01:27:06.506Z,12.20
2018-11-10T01:30:31.194Z,12.20
2018-11-10T01:33:55.853Z,12.10
2018-11-10T01:37:20.534Z,12.00
2018-11-10T01:40:45.227Z,12.00
2018-11-10T01:44:10.133Z,11.90
2018-11-10T01:47:34.808Z,11.90
2018-11-10T01:50:59.464Z,12.00
2018-11-10T01:54:24.102Z,12.00
2018-11-10T01:57:48.816Z,12.10
2018-11-10T02:01:13.460Z,12.10
2018-11-10T02:04:38.137Z,12.20
2018-11-10T02:08:02.872Z,12.20
2018-11-10T02:11:27.582Z,12.20
2018-11-10T02:14:52.291Z,12.30
2018-11-10T02:18:16.953Z,12.30
2018-11-10T02:21:41.764Z,12.40
2018-11-10T02:25:07.870Z,12.50
2018-11-10T02:28:32.636Z,12.40
2018-11-10T02:31:57.327Z,12.50
2018-11-10T02:35:22.123Z,12.40
2018-11-10T02:38:46.903Z,12.40
2018-11-10T02:42:11.527Z,12.40
2018-11-10T02:45:36.227Z,12.40
2018-11-10T02:49:01.133Z,12.50
2018-11-10T02:52:25.802Z,12.50
2018-11-10T02:55:50.601Z,12.60
2018-11-10T02:59:15.256Z,12.60
2018-11-10T03:02:39.921Z,12.60
2018-11-10T03:06:04.721Z,12.60
2018-11-10T03:09:29.345Z,12.60
2018-11-10T03:12:54.077Z,12.60
2018-11-10T03:16:18.813Z,12.60
2018-11-10T03:19:43.558Z,12.60
2018-11-10T03:23:08.198Z,12.60
2018-11-10T03:26:32.968Z,12.70
2018-11-10T03:29:57.607Z,12.80
2018-11-10T03:33:22.318Z,12.80
2018-11-10T03:36:46.987Z,12.80
2018-11-10T03:40:12.747Z,12.90
2018-11-10T03:43:37.431Z,12.90
2018-11-10T03:47:02.066Z,12.90
2018-11-10T03:50:26.741Z,12.90
2018-11-10T03:53:51.407Z,12.90
2018-11-10T03:57:16.088Z,13.00
2018-11-10T04:00:40.748Z,13.00
2018-11-10T04:04:05.458Z,13.10
2018-11-10T04:07:30.140Z,13.20
2018-11-10T04:10:54.887Z,13.20
2018-11-10T04:14:19.614Z,13.30
2018-11-10T04:17:44.279Z,13.30
2018-11-10T04:21:08.991Z,13.30
2018-11-10T04:24:33.668Z,13.30
2018-11-10T04:27:58.285Z,13.40
2018-11-10T04:31:22.964Z,13.40
2018-11-10T04:34:47.656Z,13.40
2018-11-10T04:38:12.344Z,13.30
2018-11-10T04:41:37.203Z,13.40
2018-11-10T04:45:01.927Z,13.40
2018-11-10T04:48:26.639Z,13.50
2018-11-10T04:51:51.298Z,13.50
2018-11-10T04:55:15.973Z,13.50
2018-11-10T04:58:40.656Z,13.60
2018-11-10T05:02:05.377Z,13.60
2018-11-10T05:05:30.046Z,13.60
2018-11-10T05:08:54.760Z,13.80
2018-11-10T05:12:19.448Z,13.80
2018-11-10T05:15:44.142Z,13.80
2018-11-10T05:19:08.822Z,13.70
2018-11-10T05:22:33.551Z,13.70
2018-11-10T05:25:58.303Z,13.70
2018-11-10T05:29:23.000Z,13.70
2018-11-10T05:32:47.673Z,13.70
2018-11-10T05:36:12.353Z,13.70
2018-11-10T05:39:37.070Z,13.50
2018-11-10T05:43:01.723Z,13.20
2018-11-10T05:46:26.440Z,13.00
2018-11-10T05:49:51.138Z,12.90
2018-11-10T05:53:15.820Z,12.70
2018-11-10T05:56:40.514Z,12.40
2018-11-10T06:00:07.787Z,12.20
2018-11-10T06:03:32.511Z,12.00
2018-11-10T06:06:57.161Z,11.80
2018-11-10T06:10:22.099Z,11.80
2018-11-10T06:13:46.567Z,11.70
2018-11-10T06:17:11.244Z,11.70
2018-11-10T06:20:35.962Z,11.70
2018-11-10T06:24:00.622Z,11.70
2018-11-10T06:27:25.347Z,11.60
2018-11-10T06:30:50.014Z,11.60
2018-11-10T06:34:21.293Z,11.50
2018-11-10T06:37:46.056Z,11.50
2018-11-10T06:41:10.985Z,11.50
2018-11-10T06:44:35.719Z,11.50
2018-11-10T06:48:00.393Z,11.60
2018-11-10T06:51:25.151Z,11.60
2018-11-10T06:54:49.916Z,11.70
2018-11-10T06:58:14.596Z,11.70
2018-11-10T07:01:39.529Z,11.70
2018-11-10T07:05:04.551Z,11.70
2018-11-10T07:08:29.358Z,11.70
2018-11-10T07:11:54.074Z,11.70
2018-11-10T07:15:18.781Z,11.70
2018-11-10T07:18:43.518Z,11.80
2018-11-10T07:22:08.191Z,11.80
2018-11-10T07:25:32.897Z,12.00
2018-11-10T07:28:57.574Z,12.20
2018-11-10T07:32:25.524Z,12.20
2018-11-10T07:35:50.282Z,12.30
2018-11-10T07:39:14.983Z,12.40
2018-11-10T07:42:39.687Z,12.50
2018-11-10T07:46:04.463Z,12.50
2018-11-10T07:49:29.296Z,12.50
2018-11-10T07:52:53.886Z,12.60
2018-11-10T07:56:18.655Z,12.60
2018-11-10T07:59:43.354Z,12.60
2018-11-10T08:03:08.075Z,12.60
2018-11-10T08:06:32.787Z,12.60
2018-11-10T08:09:57.536Z,12.70
2018-11-10T08:13:22.279Z,12.70
2018-11-10T08:16:46.970Z,12.70
2018-11-10T08:20:12.301Z,12.70
2018-11-10T08:23:37.071Z,12.70
2018-11-10T08:27:01.830Z,12.70
2018-11-10T08:30:26.628Z,12.70
2018-11-10T08:33:51.380Z,12.70
2018-11-10T08:37:16.172Z,12.60
2018-11-10T08:40:40.877Z,12.70
2018-11-10T08:44:06.025Z,12.70
2018-11-10T08:47:30.739Z,12.70
2018-11-10T08:50:55.523Z,12.80
2018-11-10T08:54:20.278Z,12.80
2018-11-10T08:57:45.250Z,12.80
2018-11-10T09:01:10.048Z,12.80
2018-11-10T09:04:34.938Z,12.70
2018-11-10T09:07:59.645Z,12.80
2018-11-10T09:11:24.336Z,12.80
2018-11-10T09:14:49.144Z,12.70
2018-11-10T09:18:13.944Z,12.80
2018-11-10T09:21:38.726Z,12.80
2018-11-10T09:25:03.396Z,12.80
2018-11-10T09:28:28.228Z,12.90
2018-11-10T09:31:52.896Z,13.00
2018-11-10T09:35:18.220Z,13.20
2018-11-10T09:38:43.059Z,13.30
2018-11-10T09:42:07.887Z,13.30
2018-11-10T09:45:32.565Z,13.30
2018-11-10T09:48:57.246Z,13.30
2018-11-10T09:52:21.878Z,13.40
2018-11-10T09:55:46.654Z,13.50
2018-11-10T09:59:11.310Z,13.50
2018-11-10T10:02:36.269Z,13.50
2018-11-10T10:06:00.793Z,13.50
2018-11-10T10:09:25.540Z,13.50
2018-11-10T10:12:50.252Z,13.50
2018-11-10T10:16:15.085Z,13.60
2018-11-10T10:19:39.596Z,13.70
2018-11-10T10:23:04.270Z,13.80
2018-11-10T10:26:28.975Z,13.90
2018-11-10T10:29:53.684Z,13.90
2018-11-10T10:33:18.486Z,13.90
2018-11-10T10:36:43.163Z,13.80
2018-11-10T10:40:10.581Z,13.80
2018-11-10T10:43:36.566Z,13.70
2018-11-10T10:47:01.274Z,13.80
2018-11-10T10:50:25.987Z,13.80
2018-11-10T10:53:50.649Z,13.70
2018-11-10T10:57:15.395Z,13.70
2018-11-10T11:00:45.265Z,13.60
2018-11-10T11:04:15.178Z,13.50
2018-11-10T11:07:39.869Z,13.50
2018-11-10T11:11:04.574Z,13.40
2018-11-10T11:14:29.241Z,13.40
2018-11-10T11:17:53.935Z,13.40
2018-11-10T11:21:18.629Z,13.40
2018-11-10T11:24:43.313Z,13.30
2018-11-10T11:28:08.126Z,13.30
2018-11-10T11:31:32.802Z,13.10
2018-11-10T11:34:57.489Z,12.90
2018-11-10T11:38:22.490Z,12.80
2018-11-10T11:41:47.194Z,12.80
2018-11-10T11:45:12.817Z,12.60
2018-11-10T11:48:37.505Z,12.60
2018-11-10T11:52:02.225Z,12.50
2018-11-10T11:55:26.927Z,12.50
2018-11-10T11:58:51.686Z,12.50
2018-11-10T12:02:16.381Z,12.60
2018-11-10T12:05:41.059Z,12.70
2018-11-10T12:09:08.882Z,12.70
2018-11-10T12:12:33.584Z,12.70
2018-11-10T12:15:58.274Z,12.70
2018-11-10T12:19:23.029Z,12.80
2018-11-10T12:22:50.722Z,12.70
2018-11-10T12:26:15.434Z,12.70
2018-11-10T12:29:40.110Z,12.70
2018-11-10T12:33:04.835Z,12.60
2018-11-10T12:36:29.510Z,12.70
2018-11-10T12:39:54.181Z,12.70
2018-11-10T12:43:18.907Z,12.70
2018-11-10T12:46:43.592Z,12.70
2018-11-10T12:50:10.382Z,12.70
2018-11-10T12:53:35.096Z,12.70
2018-11-10T12:57:00.749Z,12.80
2018-11-10T13:00:25.504Z,12.80
2018-11-10T13:03:50.446Z,13.00
2018-11-10T13:07:15.206Z,13.10
2018-11-10T13:10:39.966Z,13.10
2018-11-10T13:14:04.696Z,13.20
2018-11-10T13:17:29.574Z,13.20
2018-11-10T13:20:54.172Z,13.10
2018-11-10T13:24:19.062Z,13.10
2018-11-10T13:27:43.639Z,13.00
2018-11-10T13:31:08.549Z,13.00
2018-11-10T13:34:33.251Z,12.90
2018-11-10T13:37:57.965Z,12.80
2018-11-10T13:41:22.733Z,12.80
2018-11-10T13:44:47.481Z,12.70
2018-11-10T13:48:12.204Z,12.70
2018-11-10T13:51:37.098Z,12.60
2018-11-10T13:55:01.702Z,12.60
2018-11-10T13:58:26.420Z,12.50
2018-11-10T14:01:51.244Z,12.50
2018-11-10T14:05:16.137Z,12.50
2018-11-10T14:08:40.879Z,12.60
2018-11-10T14:12:05.793Z,12.60
2018-11-10T14:15:30.674Z,12.60
2018-11-10T14:18:55.319Z,12.50
2018-11-10T14:22:19.990Z,12.60
2018-11-10T14:25:44.671Z,12.60
2018-11-10T14:29:09.403Z,12.60
2018-11-10T14:32:34.124Z,12.60
2018-11-10T14:35:58.871Z,12.50
2018-11-10T14:39:23.598Z,12.60
2018-11-10T14:42:48.290Z,12.60
2018-11-10T14:46:12.982Z,12.60
2018-11-10T14:49:37.682Z,12.60
2018-11-10T14:53:02.470Z,12.60
2018-11-10T14:56:27.043Z,12.60
2018-11-10T14:59:51.706Z,12.60
2018-11-10T15:03:16.389Z,12.60
2018-11-10T15:06:41.046Z,12.60
2018-11-10T15:10:08.090Z,12.60
2018-11-10T15:13:32.762Z,12.60
2018-11-10T15:16:57.439Z,12.60
2018-11-10T15:20:22.118Z,12.70
2018-11-10T15:23:46.907Z,12.70
2018-11-10T15:27:11.605Z,12.70
2018-11-10T15:30:36.291Z,12.70
2018-11-10T15:34:01.000Z,12.70
2018-11-10T15:37:25.766Z,12.70
2018-11-10T15:40:50.416Z,12.80
2018-11-10T15:44:15.102Z,12.90
2018-11-10T15:47:40.132Z,13.00
2018-11-10T15:51:04.824Z,13.10
2018-11-10T15:54:29.509Z,13.20
2018-11-10T15:57:54.174Z,13.30
2018-11-10T16:01:18.846Z,13.30
2018-11-10T16:04:43.501Z,13.30
2018-11-10T16:08:08.148Z,13.30
2018-11-10T16:11:32.770Z,13.30
2018-11-10T16:14:57.630Z,13.30
2018-11-10T16:18:22.324Z,13.20
2018-11-10T16:21:47.030Z,13.00
2018-11-10T16:25:11.720Z,12.90
2018-11-10T16:28:36.385Z,12.80
2018-11-10T16:32:01.005Z,12.70
2018-11-10T16:35:25.632Z,12.70
2018-11-10T16:38:50.489Z,12.60
2018-11-10T16:42:15.147Z,12.60
2018-11-10T16:45:39.814Z,12.70
2018-11-10T16:49:04.670Z,12.60
2018-11-10T16:52:36.054Z,12.60
2018-11-10T16:56:00.719Z,12.60
2018-11-10T16:59:25.434Z,12.50
2018-11-10T17:02:50.190Z,12.50
2018-11-10T17:06:14.942Z,12.50
2018-11-10T17:09:39.655Z,12.50
2018-11-10T17:13:04.356Z,12.50
2018-11-10T17:16:29.101Z,12.40
2018-11-10T17:19:53.769Z,12.40
2018-11-10T17:23:18.450Z,12.30
2018-11-10T17:26:43.106Z,12.30
2018-11-10T17:30:12.283Z,12.40
2018-11-10T17:33:36.929Z,12.40
2018-11-10T17:37:01.595Z,12.40
2018-11-10T17:40:26.353Z,12.50
2018-11-10T17:43:50.983Z,12.60
2018-11-10T17:47:15.631Z,12.70
2018-11-10T17:50:40.414Z,12.80
2018-11-10T17:54:05.279Z,13.00
2018-11-10T17:57:29.921Z,13.00
2018-11-10T18:00:54.692Z,13.10
2018-11-10T18:04:19.357Z,13.20
2018-11-10T18:07:44.116Z,13.20
2018-11-10T18:11:08.781Z,13.30
2018-11-10T18:14:33.514Z,13.40
2018-11-10T18:17:58.158Z,13.40
2018-11-10T18:21:22.815Z,13.40
2018-11-10T18:24:47.583Z,13.40
2018-11-10T18:28:12.243Z,13.40
2018-11-10T18:31:36.877Z,13.30
2018-11-10T18:35:01.562Z,13.30
2018-11-10T18:38:26.324Z,13.40
2018-11-10T18:41:50.987Z,13.30
2018-11-10T18:45:15.690Z,13.40
2018-11-10T18:48:40.530Z,13.40
2018-11-10T18:52:05.279Z,13.50
2018-11-10T18:55:29.910Z,13.40
2018-11-10T18:58:54.588Z,13.20
2018-11-10T19:02:19.276Z,13.00
2018-11-10T19:05:43.956Z,12.90
2018-11-10T19:09:12.008Z,12.80
2018-11-10T19:12:36.704Z,12.90
2018-11-10T19:16:01.411Z,12.90
2018-11-10T19:19:26.119Z,12.90
2018-11-10T19:22:50.839Z,12.80
2018-11-10T19:26:15.527Z,12.80
2018-11-10T19:29:40.290Z,12.80
2018-11-10T19:33:04.940Z,12.80
2018-11-10T19:36:29.645Z,12.70
2018-11-10T19:39:54.352Z,12.70
2018-11-10T19:43:19.033Z,12.70
2018-11-10T19:46:43.725Z,12.70
2018-11-10T19:50:08.935Z,12.60
2018-11-10T19:53:33.592Z,12.60
2018-11-10T19:56:58.263Z,12.60
2018-11-10T20:00:24.128Z,12.60
2018-11-10T20:03:48.767Z,12.60
2018-11-10T20:07:13.459Z,12.60
2018-11-10T20:10:38.169Z,12.50
2018-11-10T20:14:02.857Z,12.50
2018-11-10T20:17:27.503Z,12.50
2018-11-10T20:20:52.246Z,12.50
2018-11-10T20:24:16.960Z,12.40
2018-11-10T20:27:41.931Z,12.40
2018-11-10T20:31:06.636Z,12.40
2018-11-10T20:34:31.279Z,12.40
2018-11-10T20:37:56.832Z,12.40
2018-11-10T20:41:21.528Z,12.40
2018-11-10T20:44:46.216Z,12.40
2018-11-10T20:48:10.850Z,12.40
2018-11-10T20:51:35.584Z,12.40
2018-11-10T20:55:00.252Z,12.30
2018-11-10T20:58:24.944Z,12.20
2018-11-10T21:01:49.621Z,12.20
2018-11-10T21:05:14.896Z,12.20
2018-11-10T21:08:39.610Z,12.20
2018-11-10T21:12:04.252Z,12.20
2018-11-10T21:15:28.935Z,12.20
2018-11-10T21:18:53.627Z,12.20
2018-11-10T21:22:18.334Z,12.20
2018-11-10T21:25:43.081Z,12.20
2018-11-10T21:29:08.017Z,12.20
2018-11-10T21:32:32.665Z,12.20
2018-11-10T21:36:00.298Z,12.20
2018-11-10T21:39:24.952Z,12.20
2018-11-10T21:42:49.701Z,12.20
2018-11-10T21:46:14.371Z,12.20
2018-11-10T21:49:39.239Z,12.20
2018-11-10T21:53:03.792Z,12.10
2018-11-10T21:56:28.545Z,12.10
2018-11-10T21:59:53.191Z,12.10
2018-11-10T22:03:17.859Z,12.10
2018-11-10T22:06:42.549Z,12.10
2018-11-10T22:10:10.210Z,12.10
2018-11-10T22:13:35.045Z,12.10
2018-11-10T22:16:59.739Z,12.10
2018-11-10T22:20:25.206Z,12.10
2018-11-10T22:23:49.898Z,12.00
2018-11-10T22:27:14.621Z,12.00
2018-11-10T22:30:46.018Z,12.00
2018-11-10T22:34:10.780Z,12.00
2018-11-10T22:37:35.585Z,12.00
2018-11-10T22:41:00.283Z,12.00
2018-11-10T22:44:25.102Z,12.10
2018-11-10T22:47:50.026Z,12.10
2018-11-10T22:51:14.724Z,12.20
2018-11-10T22:54:39.523Z,12.30
2018-11-10T22:58:04.243Z,12.30
2018-11-10T23:01:32.353Z,12.40
2018-11-10T23:04:57.124Z,12.40
2018-11-10T23:08:21.941Z,12.50
2018-11-10T23:11:48.673Z,12.50
2018-11-10T23:15:13.808Z,12.60
2018-11-10T23:18:38.528Z,12.70
2018-11-10T23:22:03.393Z,12.60
2018-11-10T23:25:28.114Z,12.50
2018-11-10T23:28:54.219Z,12.50
2018-11-10T23:32:18.995Z,12.50
2018-11-10T23:35:50.281Z,12.50
2018-11-10T23:39:15.010Z,12.60
2018-11-10T23:42:40.096Z,12.50
2018-11-10T23:46:04.839Z,12.50
2018-11-10T23:49:29.575Z,12.60
2018-11-10T23:52:54.350Z,12.70
2018-11-10T23:56:19.100Z,12.70
2018-11-10T23:59:43.886Z,12.60
